sensor_id;sensor_type;location;lat;lon;timestamp;temperature;humidity
71291;DHT22;59073;51.994;4.448;2024-02-04T00:01:41;11.26;89.77
71291;DHT22;59073;51.994;4.448;2024-02-04T00:04:07;11.31;89.75
71291;DHT22;59073;51.994;4.448;2024-02-04T00:06:32;11.37;89.42
71291;DHT22;59073;51.994;4.448;2024-02-04T00:08:58;11.41;89.39
71291;DHT22;59073;51.994;4.448;2024-02-04T00:11:24;11.38;89.37
71291;DHT22;59073;51.994;4.448;2024-02-04T00:13:49;11.38;89.44
71291;DHT22;59073;51.994;4.448;2024-02-04T00:16:15;11.44;89.47
71291;DHT22;59073;51.994;4.448;2024-02-04T00:18:40;11.44;89.31
71291;DHT22;59073;51.994;4.448;2024-02-04T00:21:06;11.44;89.23
71291;DHT22;59073;51.994;4.448;2024-02-04T00:23:31;11.37;89.15
71291;DHT22;59073;51.994;4.448;2024-02-04T00:25:57;11.42;89.12
71291;DHT22;59073;51.994;4.448;2024-02-04T00:28:22;11.50;88.85
71291;DHT22;59073;51.994;4.448;2024-02-04T00:30:48;11.48;88.95
71291;DHT22;59073;51.994;4.448;2024-02-04T00:33:20;11.45;89.04
71291;DHT22;59073;51.994;4.448;2024-02-04T00:35:46;11.44;89.09
71291;DHT22;59073;51.994;4.448;2024-02-04T00:38:11;11.48;89.11
71291;DHT22;59073;51.994;4.448;2024-02-04T00:40:37;11.54;88.79
71291;DHT22;59073;51.994;4.448;2024-02-04T00:43:02;11.61;88.24
71291;DHT22;59073;51.994;4.448;2024-02-04T00:45:28;11.54;88.53
71291;DHT22;59073;51.994;4.448;2024-02-04T00:47:53;11.52;88.51
71291;DHT22;59073;51.994;4.448;2024-02-04T00:50:19;11.45;88.74
71291;DHT22;59073;51.994;4.448;2024-02-04T00:52:44;11.51;88.62
71291;DHT22;59073;51.994;4.448;2024-02-04T00:55:10;11.55;88.45
71291;DHT22;59073;51.994;4.448;2024-02-04T00:57:35;11.50;88.36
71291;DHT22;59073;51.994;4.448;2024-02-04T01:00:01;11.57;88.21
71291;DHT22;59073;51.994;4.448;2024-02-04T01:02:26;11.48;88.46
71291;DHT22;59073;51.994;4.448;2024-02-04T01:04:52;11.57;88.12
71291;DHT22;59073;51.994;4.448;2024-02-04T01:07:18;11.52;87.94
71291;DHT22;59073;51.994;4.448;2024-02-04T01:09:43;11.61;88.12
71291;DHT22;59073;51.994;4.448;2024-02-04T01:12:09;11.60;87.87
71291;DHT22;59073;51.994;4.448;2024-02-04T01:14:34;11.60;87.86
71291;DHT22;59073;51.994;4.448;2024-02-04T01:17:00;11.58;87.24
71291;DHT22;59073;51.994;4.448;2024-02-04T01:19:25;11.64;87.40
71291;DHT22;59073;51.994;4.448;2024-02-04T01:21:50;11.65;87.24
71291;DHT22;59073;51.994;4.448;2024-02-04T01:24:16;11.55;87.02
71291;DHT22;59073;51.994;4.448;2024-02-04T01:26:42;11.54;87.51
71291;DHT22;59073;51.994;4.448;2024-02-04T01:29:07;11.60;87.56
71291;DHT22;59073;51.994;4.448;2024-02-04T01:31:33;11.55;87.41
71291;DHT22;59073;51.994;4.448;2024-02-04T01:33:58;11.51;87.50
71291;DHT22;59073;51.994;4.448;2024-02-04T01:36:24;11.61;87.29
71291;DHT22;59073;51.994;4.448;2024-02-04T01:38:49;11.58;87.13
71291;DHT22;59073;51.994;4.448;2024-02-04T01:41:15;11.52;87.37
71291;DHT22;59073;51.994;4.448;2024-02-04T01:43:40;11.61;87.10
71291;DHT22;59073;51.994;4.448;2024-02-04T01:46:07;11.64;86.86
71291;DHT22;59073;51.994;4.448;2024-02-04T01:48:34;11.62;86.74
71291;DHT22;59073;51.994;4.448;2024-02-04T01:51:00;11.65;86.63
71291;DHT22;59073;51.994;4.448;2024-02-04T01:53:28;11.58;86.70
71291;DHT22;59073;51.994;4.448;2024-02-04T01:55:55;11.58;86.73
71291;DHT22;59073;51.994;4.448;2024-02-04T01:58:22;11.57;86.83
71291;DHT22;59073;51.994;4.448;2024-02-04T02:00:49;11.51;86.58
71291;DHT22;59073;51.994;4.448;2024-02-04T02:03:15;11.41;86.84
71291;DHT22;59073;51.994;4.448;2024-02-04T02:05:41;11.35;87.21
71291;DHT22;59073;51.994;4.448;2024-02-04T02:08:07;11.26;87.14
71291;DHT22;59073;51.994;4.448;2024-02-04T02:10:33;11.21;87.22
71291;DHT22;59073;51.994;4.448;2024-02-04T02:13:14;11.11;87.22
71291;DHT22;59073;51.994;4.448;2024-02-04T02:15:46;10.99;87.48
71291;DHT22;59073;51.994;4.448;2024-02-04T02:18:34;10.95;87.74
71291;DHT22;59073;51.994;4.448;2024-02-04T02:24:11;10.89;87.92
71291;DHT22;59073;51.994;4.448;2024-02-04T02:26:37;10.95;87.59
71291;DHT22;59073;51.994;4.448;2024-02-04T02:29:05;10.93;87.75
71291;DHT22;59073;51.994;4.448;2024-02-04T02:31:31;11.03;87.32
71291;DHT22;59073;51.994;4.448;2024-02-04T02:33:57;10.99;87.43
71291;DHT22;59073;51.994;4.448;2024-02-04T02:36:28;11.03;87.38
71291;DHT22;59073;51.994;4.448;2024-02-04T02:41:33;11.11;87.53
71291;DHT22;59073;51.994;4.448;2024-02-04T02:44:00;11.17;87.28
71291;DHT22;59073;51.994;4.448;2024-02-04T02:46:28;11.17;87.24
71291;DHT22;59073;51.994;4.448;2024-02-04T02:48:54;11.16;87.59
71291;DHT22;59073;51.994;4.448;2024-02-04T02:51:19;11.20;87.93
71291;DHT22;59073;51.994;4.448;2024-02-04T02:53:45;11.24;87.57
71291;DHT22;59073;51.994;4.448;2024-02-04T02:56:10;11.30;87.50
71291;DHT22;59073;51.994;4.448;2024-02-04T02:58:36;11.34;87.34
71291;DHT22;59073;51.994;4.448;2024-02-04T03:01:01;11.38;87.27
71291;DHT22;59073;51.994;4.448;2024-02-04T03:03:27;11.48;86.95
71291;DHT22;59073;51.994;4.448;2024-02-04T03:05:52;11.61;86.41
71291;DHT22;59073;51.994;4.448;2024-02-04T03:08:18;11.55;86.25
71291;DHT22;59073;51.994;4.448;2024-02-04T03:10:44;11.61;86.28
71291;DHT22;59073;51.994;4.448;2024-02-04T03:13:09;11.77;85.79
71291;DHT22;59073;51.994;4.448;2024-02-04T03:15:34;11.86;85.20
71291;DHT22;59073;51.994;4.448;2024-02-04T03:18:00;11.72;85.03
71291;DHT22;59073;51.994;4.448;2024-02-04T03:20:25;11.68;85.39
71291;DHT22;59073;51.994;4.448;2024-02-04T03:22:51;11.62;85.66
71291;DHT22;59073;51.994;4.448;2024-02-04T03:25:16;11.54;85.73
71291;DHT22;59073;51.994;4.448;2024-02-04T03:27:42;11.61;85.82
71291;DHT22;59073;51.994;4.448;2024-02-04T03:30:07;11.64;85.62
71291;DHT22;59073;51.994;4.448;2024-02-04T03:32:33;11.65;85.77
71291;DHT22;59073;51.994;4.448;2024-02-04T03:35:00;11.55;85.89
71291;DHT22;59073;51.994;4.448;2024-02-04T03:37:26;11.58;85.83
71291;DHT22;59073;51.994;4.448;2024-02-04T03:39:51;11.67;85.79
71291;DHT22;59073;51.994;4.448;2024-02-04T03:42:17;11.60;85.67
71291;DHT22;59073;51.994;4.448;2024-02-04T03:44:44;11.52;86.01
71291;DHT22;59073;51.994;4.448;2024-02-04T03:47:09;11.23;86.36
71291;DHT22;59073;51.994;4.448;2024-02-04T03:49:34;11.11;86.84
71291;DHT22;59073;51.994;4.448;2024-02-04T03:52:00;11.06;86.95
71291;DHT22;59073;51.994;4.448;2024-02-04T03:54:25;11.01;87.12
71291;DHT22;59073;51.994;4.448;2024-02-04T03:56:51;11.01;87.28
71291;DHT22;59073;51.994;4.448;2024-02-04T03:59:16;11.03;87.38
71291;DHT22;59073;51.994;4.448;2024-02-04T04:01:47;11.07;87.22
71291;DHT22;59073;51.994;4.448;2024-02-04T04:04:13;11.09;86.97
71291;DHT22;59073;51.994;4.448;2024-02-04T04:06:39;11.09;86.99
71291;DHT22;59073;51.994;4.448;2024-02-04T04:09:05;11.11;86.84
71291;DHT22;59073;51.994;4.448;2024-02-04T04:11:32;11.11;87.15
71291;DHT22;59073;51.994;4.448;2024-02-04T04:13:57;11.13;86.97
71291;DHT22;59073;51.994;4.448;2024-02-04T04:16:23;11.19;86.91
71291;DHT22;59073;51.994;4.448;2024-02-04T04:18:49;11.16;86.71
71291;DHT22;59073;51.994;4.448;2024-02-04T04:21:15;11.17;86.50
71291;DHT22;59073;51.994;4.448;2024-02-04T04:23:40;11.11;86.65
71291;DHT22;59073;51.994;4.448;2024-02-04T04:26:06;11.13;86.50
71291;DHT22;59073;51.994;4.448;2024-02-04T04:28:31;11.13;86.79
71291;DHT22;59073;51.994;4.448;2024-02-04T04:30:57;11.13;86.79
71291;DHT22;59073;51.994;4.448;2024-02-04T04:33:22;11.14;86.87
71291;DHT22;59073;51.994;4.448;2024-02-04T04:35:48;11.21;86.83
71291;DHT22;59073;51.994;4.448;2024-02-04T04:38:13;11.24;86.62
71291;DHT22;59073;51.994;4.448;2024-02-04T04:40:39;11.30;86.39
71291;DHT22;59073;51.994;4.448;2024-02-04T04:43:06;11.19;86.68
71291;DHT22;59073;51.994;4.448;2024-02-04T04:45:31;11.21;86.80
71291;DHT22;59073;51.994;4.448;2024-02-04T04:47:57;11.19;86.90
71291;DHT22;59073;51.994;4.448;2024-02-04T04:50:23;11.19;87.18
71291;DHT22;59073;51.994;4.448;2024-02-04T04:52:49;11.10;87.23
71291;DHT22;59073;51.994;4.448;2024-02-04T04:55:15;11.11;87.09
71291;DHT22;59073;51.994;4.448;2024-02-04T04:57:40;11.16;87.27
71291;DHT22;59073;51.994;4.448;2024-02-04T05:00:06;11.26;86.85
71291;DHT22;59073;51.994;4.448;2024-02-04T05:02:35;11.17;86.72
71291;DHT22;59073;51.994;4.448;2024-02-04T05:05:01;11.17;86.84
71291;DHT22;59073;51.994;4.448;2024-02-04T05:07:26;11.07;87.02
71291;DHT22;59073;51.994;4.448;2024-02-04T05:09:52;11.06;87.24
71291;DHT22;59073;51.994;4.448;2024-02-04T05:12:17;11.06;87.19
71291;DHT22;59073;51.994;4.448;2024-02-04T05:14:43;10.92;87.71
71291;DHT22;59073;51.994;4.448;2024-02-04T05:17:08;10.88;87.90
71291;DHT22;59073;51.994;4.448;2024-02-04T05:19:35;10.93;88.02
71291;DHT22;59073;51.994;4.448;2024-02-04T05:22:01;10.96;87.52
71291;DHT22;59073;51.994;4.448;2024-02-04T05:24:26;10.97;87.77
71291;DHT22;59073;51.994;4.448;2024-02-04T05:26:52;11.04;87.37
71291;DHT22;59073;51.994;4.448;2024-02-04T05:29:17;11.14;87.29
71291;DHT22;59073;51.994;4.448;2024-02-04T05:31:43;11.06;87.07
71291;DHT22;59073;51.994;4.448;2024-02-04T05:34:09;11.11;87.54
71291;DHT22;59073;51.994;4.448;2024-02-04T05:36:35;11.26;86.60
71291;DHT22;59073;51.994;4.448;2024-02-04T05:39:10;11.34;86.44
71291;DHT22;59073;51.994;4.448;2024-02-04T05:41:37;11.32;85.72
71291;DHT22;59073;51.994;4.448;2024-02-04T05:44:02;11.20;86.53
71291;DHT22;59073;51.994;4.448;2024-02-04T05:46:28;11.32;86.11
71291;DHT22;59073;51.994;4.448;2024-02-04T05:48:53;11.34;85.82
71291;DHT22;59073;51.994;4.448;2024-02-04T05:51:19;11.26;86.08
71291;DHT22;59073;51.994;4.448;2024-02-04T05:53:44;11.17;86.53
71291;DHT22;59073;51.994;4.448;2024-02-04T05:56:10;11.16;86.57
71291;DHT22;59073;51.994;4.448;2024-02-04T05:58:35;11.07;86.20
71291;DHT22;59073;51.994;4.448;2024-02-04T06:01:01;11.14;86.66
71291;DHT22;59073;51.994;4.448;2024-02-04T06:03:27;11.11;86.79
71291;DHT22;59073;51.994;4.448;2024-02-04T06:05:52;11.16;86.73
71291;DHT22;59073;51.994;4.448;2024-02-04T06:08:18;11.16;86.38
71291;DHT22;59073;51.994;4.448;2024-02-04T06:10:43;11.04;86.97
71291;DHT22;59073;51.994;4.448;2024-02-04T06:13:08;11.09;87.33
71291;DHT22;59073;51.994;4.448;2024-02-04T06:15:34;11.06;87.27
71291;DHT22;59073;51.994;4.448;2024-02-04T06:18:01;11.13;87.29
71291;DHT22;59073;51.994;4.448;2024-02-04T06:20:26;11.13;87.41
71291;DHT22;59073;51.994;4.448;2024-02-04T06:22:52;11.24;87.41
71291;DHT22;59073;51.994;4.448;2024-02-04T06:25:17;11.28;87.10
71291;DHT22;59073;51.994;4.448;2024-02-04T06:27:43;11.27;87.07
71291;DHT22;59073;51.994;4.448;2024-02-04T06:30:08;11.27;87.01
71291;DHT22;59073;51.994;4.448;2024-02-04T06:32:34;11.24;87.06
71291;DHT22;59073;51.994;4.448;2024-02-04T06:34:59;11.32;87.44
71291;DHT22;59073;51.994;4.448;2024-02-04T06:37:25;11.40;87.90
71291;DHT22;59073;51.994;4.448;2024-02-04T06:39:52;11.32;86.77
71291;DHT22;59073;51.994;4.448;2024-02-04T06:42:17;11.27;87.18
71291;DHT22;59073;51.994;4.448;2024-02-04T06:44:46;11.27;87.14
71291;DHT22;59073;51.994;4.448;2024-02-04T06:47:12;11.26;87.11
71291;DHT22;59073;51.994;4.448;2024-02-04T06:49:39;11.20;87.48
71291;DHT22;59073;51.994;4.448;2024-02-04T06:52:05;11.09;87.61
71291;DHT22;59073;51.994;4.448;2024-02-04T06:54:30;10.93;88.42
71291;DHT22;59073;51.994;4.448;2024-02-04T06:56:56;10.93;88.07
71291;DHT22;59073;51.994;4.448;2024-02-04T06:59:21;11.01;88.06
71291;DHT22;59073;51.994;4.448;2024-02-04T07:01:47;11.01;87.75
71291;DHT22;59073;51.994;4.448;2024-02-04T07:04:12;11.01;87.90
71291;DHT22;59073;51.994;4.448;2024-02-04T07:06:38;10.97;87.78
71291;DHT22;59073;51.994;4.448;2024-02-04T07:09:03;10.99;87.85
71291;DHT22;59073;51.994;4.448;2024-02-04T07:11:29;10.96;87.98
71291;DHT22;59073;51.994;4.448;2024-02-04T07:13:54;11.06;88.30
71291;DHT22;59073;51.994;4.448;2024-02-04T07:16:25;11.00;88.28
71291;DHT22;59073;51.994;4.448;2024-02-04T07:18:51;11.13;88.57
71291;DHT22;59073;51.994;4.448;2024-02-04T07:21:16;11.28;88.17
71291;DHT22;59073;51.994;4.448;2024-02-04T07:23:42;11.31;87.72
71291;DHT22;59073;51.994;4.448;2024-02-04T07:26:08;11.16;88.42
71291;DHT22;59073;51.994;4.448;2024-02-04T07:28:34;11.21;88.26
71291;DHT22;59073;51.994;4.448;2024-02-04T07:31:00;11.28;87.88
71291;DHT22;59073;51.994;4.448;2024-02-04T07:33:25;11.23;87.97
71291;DHT22;59073;51.994;4.448;2024-02-04T07:35:51;11.26;88.05
71291;DHT22;59073;51.994;4.448;2024-02-04T07:38:16;11.31;88.18
71291;DHT22;59073;51.994;4.448;2024-02-04T07:40:42;11.28;88.05
71291;DHT22;59073;51.994;4.448;2024-02-04T07:43:08;11.32;88.22
71291;DHT22;59073;51.994;4.448;2024-02-04T07:45:34;11.28;88.17
71291;DHT22;59073;51.994;4.448;2024-02-04T07:48:00;11.32;87.88
71291;DHT22;59073;51.994;4.448;2024-02-04T07:50:25;11.30;87.62
71291;DHT22;59073;51.994;4.448;2024-02-04T07:52:51;11.23;87.88
71291;DHT22;59073;51.994;4.448;2024-02-04T07:55:17;11.23;88.18
71291;DHT22;59073;51.994;4.448;2024-02-04T07:57:42;11.24;87.84
71291;DHT22;59073;51.994;4.448;2024-02-04T08:00:08;11.19;87.88
71291;DHT22;59073;51.994;4.448;2024-02-04T08:02:36;11.19;87.80
71291;DHT22;59073;51.994;4.448;2024-02-04T08:05:03;11.07;88.13
71291;DHT22;59073;51.994;4.448;2024-02-04T08:07:29;11.06;88.16
71291;DHT22;59073;51.994;4.448;2024-02-04T08:09:54;11.13;87.99
71291;DHT22;59073;51.994;4.448;2024-02-04T08:12:20;11.20;87.72
71291;DHT22;59073;51.994;4.448;2024-02-04T08:14:45;11.13;87.85
71291;DHT22;59073;51.994;4.448;2024-02-04T08:17:11;11.16;87.85
71291;DHT22;59073;51.994;4.448;2024-02-04T08:19:36;11.04;88.18
71291;DHT22;59073;51.994;4.448;2024-02-04T08:22:02;11.09;88.16
71291;DHT22;59073;51.994;4.448;2024-02-04T08:24:27;11.01;88.35
71291;DHT22;59073;51.994;4.448;2024-02-04T08:26:55;11.07;88.33
71291;DHT22;59073;51.994;4.448;2024-02-04T08:29:20;11.13;87.93
71291;DHT22;59073;51.994;4.448;2024-02-04T08:31:46;11.24;87.57
71291;DHT22;59073;51.994;4.448;2024-02-04T08:34:11;11.14;87.78
71291;DHT22;59073;51.994;4.448;2024-02-04T08:36:36;11.09;88.05
71291;DHT22;59073;51.994;4.448;2024-02-04T08:39:02;11.09;88.00
71291;DHT22;59073;51.994;4.448;2024-02-04T08:41:28;11.16;88.11
71291;DHT22;59073;51.994;4.448;2024-02-04T08:43:53;11.11;87.93
71291;DHT22;59073;51.994;4.448;2024-02-04T08:46:19;11.20;87.46
71291;DHT22;59073;51.994;4.448;2024-02-04T08:48:44;11.28;87.51
71291;DHT22;59073;51.994;4.448;2024-02-04T08:51:13;11.31;87.50
71291;DHT22;59073;51.994;4.448;2024-02-04T08:53:41;11.52;86.81
71291;DHT22;59073;51.994;4.448;2024-02-04T08:56:08;11.47;86.53
71291;DHT22;59073;51.994;4.448;2024-02-04T08:58:34;11.41;86.29
71291;DHT22;59073;51.994;4.448;2024-02-04T09:01:03;11.47;86.45
71291;DHT22;59073;51.994;4.448;2024-02-04T09:03:28;11.42;86.61
71291;DHT22;59073;51.994;4.448;2024-02-04T09:05:55;11.50;86.33
71291;DHT22;59073;51.994;4.448;2024-02-04T09:08:20;11.54;86.27
71291;DHT22;59073;51.994;4.448;2024-02-04T09:10:46;11.47;86.45
71291;DHT22;59073;51.994;4.448;2024-02-04T09:13:11;11.44;86.60
71291;DHT22;59073;51.994;4.448;2024-02-04T09:15:37;11.47;86.56
71291;DHT22;59073;51.994;4.448;2024-02-04T09:18:02;11.50;86.33
71291;DHT22;59073;51.994;4.448;2024-02-04T09:20:28;11.58;86.17
71291;DHT22;59073;51.994;4.448;2024-02-04T09:22:53;11.62;86.34
71291;DHT22;59073;51.994;4.448;2024-02-04T09:25:19;11.60;86.41
71291;DHT22;59073;51.994;4.448;2024-02-04T09:27:44;11.48;86.71
71291;DHT22;59073;51.994;4.448;2024-02-04T09:30:10;11.41;87.57
71291;DHT22;59073;51.994;4.448;2024-02-04T09:32:37;11.44;87.94
71291;DHT22;59073;51.994;4.448;2024-02-04T09:35:03;11.48;88.03
71291;DHT22;59073;51.994;4.448;2024-02-04T09:37:29;11.47;88.40
71291;DHT22;59073;51.994;4.448;2024-02-04T09:39:54;11.54;88.02
71291;DHT22;59073;51.994;4.448;2024-02-04T09:42:20;11.45;87.98
71291;DHT22;59073;51.994;4.448;2024-02-04T09:44:50;11.44;88.19
71291;DHT22;59073;51.994;4.448;2024-02-04T09:47:16;11.51;88.00
71291;DHT22;59073;51.994;4.448;2024-02-04T09:49:42;11.44;88.21
71291;DHT22;59073;51.994;4.448;2024-02-04T09:52:09;11.38;88.09
71291;DHT22;59073;51.994;4.448;2024-02-04T09:55:00;11.34;88.35
71291;DHT22;59073;51.994;4.448;2024-02-04T09:57:26;11.38;88.56
71291;DHT22;59073;51.994;4.448;2024-02-04T09:59:54;11.41;88.41
71291;DHT22;59073;51.994;4.448;2024-02-04T10:02:20;11.34;88.79
71291;DHT22;59073;51.994;4.448;2024-02-04T10:04:46;11.40;88.86
71291;DHT22;59073;51.994;4.448;2024-02-04T10:07:11;11.32;88.47
71291;DHT22;59073;51.994;4.448;2024-02-04T10:09:39;11.44;88.34
71291;DHT22;59073;51.994;4.448;2024-02-04T10:12:05;11.45;88.28
71291;DHT22;59073;51.994;4.448;2024-02-04T10:14:31;11.44;88.49
71291;DHT22;59073;51.994;4.448;2024-02-04T10:16:56;11.47;87.93
71291;DHT22;59073;51.994;4.448;2024-02-04T10:19:24;11.47;88.18
71291;DHT22;59073;51.994;4.448;2024-02-04T10:22:04;11.45;88.13
71291;DHT22;59073;51.994;4.448;2024-02-04T10:24:30;11.44;88.13
71291;DHT22;59073;51.994;4.448;2024-02-04T10:26:56;11.60;87.82
71291;DHT22;59073;51.994;4.448;2024-02-04T10:29:22;11.52;87.76
71291;DHT22;59073;51.994;4.448;2024-02-04T10:31:48;11.61;87.34
71291;DHT22;59073;51.994;4.448;2024-02-04T10:34:13;11.58;87.44
71291;DHT22;59073;51.994;4.448;2024-02-04T10:36:39;11.67;87.54
71291;DHT22;59073;51.994;4.448;2024-02-04T10:39:05;11.74;86.71
71291;DHT22;59073;51.994;4.448;2024-02-04T10:41:34;11.79;86.36
71291;DHT22;59073;51.994;4.448;2024-02-04T10:44:03;11.78;86.28
71291;DHT22;59073;51.994;4.448;2024-02-04T10:46:30;11.81;86.15
71291;DHT22;59073;51.994;4.448;2024-02-04T10:49:00;11.85;85.98
71291;DHT22;59073;51.994;4.448;2024-02-04T10:51:27;11.83;86.06
71291;DHT22;59073;51.994;4.448;2024-02-04T10:53:56;11.85;86.42
71291;DHT22;59073;51.994;4.448;2024-02-04T10:56:29;11.92;85.90
71291;DHT22;59073;51.994;4.448;2024-02-04T10:58:56;11.88;85.87
71291;DHT22;59073;51.994;4.448;2024-02-04T11:01:24;11.89;85.69
71291;DHT22;59073;51.994;4.448;2024-02-04T11:03:51;11.93;85.58
71291;DHT22;59073;51.994;4.448;2024-02-04T11:06:20;11.83;85.78
71291;DHT22;59073;51.994;4.448;2024-02-04T11:08:46;11.88;85.98
71291;DHT22;59073;51.994;4.448;2024-02-04T11:11:12;11.88;85.60
71291;DHT22;59073;51.994;4.448;2024-02-04T11:13:42;11.93;85.28
71291;DHT22;59073;51.994;4.448;2024-02-04T11:16:22;11.86;85.43
71291;DHT22;59073;51.994;4.448;2024-02-04T11:22:00;11.92;85.54
71291;DHT22;59073;51.994;4.448;2024-02-04T11:27:22;12.00;85.14
71291;DHT22;59073;51.994;4.448;2024-02-04T11:29:48;12.03;85.31
71291;DHT22;59073;51.994;4.448;2024-02-04T11:32:13;12.08;84.99
71291;DHT22;59073;51.994;4.448;2024-02-04T11:34:40;12.00;85.14
71291;DHT22;59073;51.994;4.448;2024-02-04T11:37:18;12.15;85.01
71291;DHT22;59073;51.994;4.448;2024-02-04T11:39:51;11.98;85.07
71291;DHT22;59073;51.994;4.448;2024-02-04T11:42:17;12.08;85.36
71291;DHT22;59073;51.994;4.448;2024-02-04T11:44:44;12.10;84.76
71291;DHT22;59073;51.994;4.448;2024-02-04T11:47:11;12.20;84.96
71291;DHT22;59073;51.994;4.448;2024-02-04T11:49:36;12.32;84.41
71291;DHT22;59073;51.994;4.448;2024-02-04T11:52:02;12.30;83.94
71291;DHT22;59073;51.994;4.448;2024-02-04T11:54:28;12.41;83.67
71291;DHT22;59073;51.994;4.448;2024-02-04T11:56:54;12.43;83.62
71291;DHT22;59073;51.994;4.448;2024-02-04T11:59:25;12.22;84.42
71291;DHT22;59073;51.994;4.448;2024-02-04T12:01:55;12.28;84.13
71291;DHT22;59073;51.994;4.448;2024-02-04T12:04:22;12.20;84.68
71291;DHT22;59073;51.994;4.448;2024-02-04T12:06:48;12.25;84.57
71291;DHT22;59073;51.994;4.448;2024-02-04T12:09:16;12.22;84.23
71291;DHT22;59073;51.994;4.448;2024-02-04T12:11:43;12.29;84.30
71291;DHT22;59073;51.994;4.448;2024-02-04T12:14:10;12.22;84.46
71291;DHT22;59073;51.994;4.448;2024-02-04T12:16:35;12.15;84.55
71291;DHT22;59073;51.994;4.448;2024-02-04T12:19:04;12.06;84.90
71291;DHT22;59073;51.994;4.448;2024-02-04T12:21:32;12.10;84.86
71291;DHT22;59073;51.994;4.448;2024-02-04T12:23:59;12.30;84.24
71291;DHT22;59073;51.994;4.448;2024-02-04T12:26:25;12.30;84.11
71291;DHT22;59073;51.994;4.448;2024-02-04T12:28:50;12.47;83.93
71291;DHT22;59073;51.994;4.448;2024-02-04T12:31:17;12.41;83.68
71291;DHT22;59073;51.994;4.448;2024-02-04T12:33:52;12.54;83.41
71291;DHT22;59073;51.994;4.448;2024-02-04T12:36:17;12.47;84.16
71291;DHT22;59073;51.994;4.448;2024-02-04T12:38:50;12.56;83.63
71291;DHT22;59073;51.994;4.448;2024-02-04T12:41:15;12.68;83.18
71291;DHT22;59073;51.994;4.448;2024-02-04T12:43:41;12.59;83.09
71291;DHT22;59073;51.994;4.448;2024-02-04T12:46:07;12.61;82.87
71291;DHT22;59073;51.994;4.448;2024-02-04T12:48:34;12.40;83.48
71291;DHT22;59073;51.994;4.448;2024-02-04T12:51:00;12.39;84.04
71291;DHT22;59073;51.994;4.448;2024-02-04T12:53:26;12.22;83.99
71291;DHT22;59073;51.994;4.448;2024-02-04T12:55:58;12.33;83.97
71291;DHT22;59073;51.994;4.448;2024-02-04T12:58:25;12.39;83.89
71291;DHT22;59073;51.994;4.448;2024-02-04T13:01:00;12.29;83.82
71291;DHT22;59073;51.994;4.448;2024-02-04T13:03:26;12.19;84.47
71291;DHT22;59073;51.994;4.448;2024-02-04T13:05:57;12.13;84.73
71291;DHT22;59073;51.994;4.448;2024-02-04T13:08:26;12.22;84.48
71291;DHT22;59073;51.994;4.448;2024-02-04T13:10:56;12.30;84.46
71291;DHT22;59073;51.994;4.448;2024-02-04T13:13:23;12.43;84.08
71291;DHT22;59073;51.994;4.448;2024-02-04T13:15:52;12.40;84.21
71291;DHT22;59073;51.994;4.448;2024-02-04T13:18:18;12.44;83.70
71291;DHT22;59073;51.994;4.448;2024-02-04T13:20:44;12.43;84.01
71291;DHT22;59073;51.994;4.448;2024-02-04T13:23:11;12.44;84.03
71291;DHT22;59073;51.994;4.448;2024-02-04T13:25:37;12.40;83.86
71291;DHT22;59073;51.994;4.448;2024-02-04T13:28:03;12.37;84.04
71291;DHT22;59073;51.994;4.448;2024-02-04T13:30:29;12.34;83.80
71291;DHT22;59073;51.994;4.448;2024-02-04T13:32:55;12.39;83.76
71291;DHT22;59073;51.994;4.448;2024-02-04T13:35:23;12.49;83.43
71291;DHT22;59073;51.994;4.448;2024-02-04T13:37:49;12.54;83.51
71291;DHT22;59073;51.994;4.448;2024-02-04T13:40:18;12.54;83.28
71291;DHT22;59073;51.994;4.448;2024-02-04T13:42:44;12.46;83.69
71291;DHT22;59073;51.994;4.448;2024-02-04T13:45:11;12.59;83.52
71291;DHT22;59073;51.994;4.448;2024-02-04T13:47:39;12.57;83.22
71291;DHT22;59073;51.994;4.448;2024-02-04T13:50:06;12.63;82.96
71291;DHT22;59073;51.994;4.448;2024-02-04T13:52:36;12.70;82.78
71291;DHT22;59073;51.994;4.448;2024-02-04T13:55:02;12.63;83.08
71291;DHT22;59073;51.994;4.448;2024-02-04T13:57:30;12.61;82.79
71291;DHT22;59073;51.994;4.448;2024-02-04T13:59:56;12.47;83.23
71291;DHT22;59073;51.994;4.448;2024-02-04T14:02:21;12.49;83.10
71291;DHT22;59073;51.994;4.448;2024-02-04T14:04:49;12.47;83.13
71291;DHT22;59073;51.994;4.448;2024-02-04T14:07:14;12.43;82.99
71291;DHT22;59073;51.994;4.448;2024-02-04T14:09:39;12.33;83.71
71291;DHT22;59073;51.994;4.448;2024-02-04T14:12:05;12.32;83.82
71291;DHT22;59073;51.994;4.448;2024-02-04T14:14:31;12.41;83.50
71291;DHT22;59073;51.994;4.448;2024-02-04T14:16:57;12.40;83.40
71291;DHT22;59073;51.994;4.448;2024-02-04T14:19:22;12.37;83.48
71291;DHT22;59073;51.994;4.448;2024-02-04T14:21:48;12.36;83.42
71291;DHT22;59073;51.994;4.448;2024-02-04T14:24:13;12.30;83.51
71291;DHT22;59073;51.994;4.448;2024-02-04T14:26:39;12.23;83.60
71291;DHT22;59073;51.994;4.448;2024-02-04T14:29:06;12.23;83.82
71291;DHT22;59073;51.994;4.448;2024-02-04T14:31:33;12.26;83.72
71291;DHT22;59073;51.994;4.448;2024-02-04T14:33:58;12.19;83.81
71291;DHT22;59073;51.994;4.448;2024-02-04T14:36:24;12.13;83.99
71291;DHT22;59073;51.994;4.448;2024-02-04T14:38:50;12.18;83.91
71291;DHT22;59073;51.994;4.448;2024-02-04T14:41:16;12.08;84.47
71291;DHT22;59073;51.994;4.448;2024-02-04T14:43:42;12.09;84.44
71291;DHT22;59073;51.994;4.448;2024-02-04T14:46:07;12.00;84.63
71291;DHT22;59073;51.994;4.448;2024-02-04T14:48:33;12.10;84.48
71291;DHT22;59073;51.994;4.448;2024-02-04T14:51:00;12.13;83.98
71291;DHT22;59073;51.994;4.448;2024-02-04T14:53:26;12.19;84.17
71291;DHT22;59073;51.994;4.448;2024-02-04T14:55:52;12.22;83.96
71291;DHT22;59073;51.994;4.448;2024-02-04T14:58:18;12.25;84.05
71291;DHT22;59073;51.994;4.448;2024-02-04T15:00:44;12.25;83.77
71291;DHT22;59073;51.994;4.448;2024-02-04T15:03:09;12.20;83.86
71291;DHT22;59073;51.994;4.448;2024-02-04T15:05:35;12.28;83.50
71291;DHT22;59073;51.994;4.448;2024-02-04T15:08:00;12.22;83.80
71291;DHT22;59073;51.994;4.448;2024-02-04T15:10:26;12.06;84.13
71291;DHT22;59073;51.994;4.448;2024-02-04T15:12:51;12.19;84.17
71291;DHT22;59073;51.994;4.448;2024-02-04T15:15:19;12.40;83.22
71291;DHT22;59073;51.994;4.448;2024-02-04T15:17:44;12.28;83.75
71291;DHT22;59073;51.994;4.448;2024-02-04T15:20:10;12.34;83.55
71291;DHT22;59073;51.994;4.448;2024-02-04T15:22:39;12.32;83.23
71291;DHT22;59073;51.994;4.448;2024-02-04T15:25:06;12.32;83.18
71291;DHT22;59073;51.994;4.448;2024-02-04T15:27:32;12.23;83.46
71291;DHT22;59073;51.994;4.448;2024-02-04T15:29:59;12.16;83.63
71291;DHT22;59073;51.994;4.448;2024-02-04T15:32:24;12.22;83.56
71291;DHT22;59073;51.994;4.448;2024-02-04T15:34:50;12.16;83.61
71291;DHT22;59073;51.994;4.448;2024-02-04T15:37:16;12.05;84.08